createdAt,value
2022-12-27T00:02:21.201Z,2.10
2022-12-27T00:04:47.789Z,1.75
2022-12-27T00:07:14.402Z,2.08
2022-12-27T00:09:40.999Z,2.17
2022-12-27T00:12:08.111Z,2.75
2022-12-27T00:14:34.681Z,1.70
2022-12-27T00:17:01.220Z,2.20
2022-12-27T00:19:27.791Z,2.05
2022-12-27T00:21:54.353Z,2.60
2022-12-27T00:24:20.928Z,1.88
2022-12-27T00:26:47.525Z,2.05
2022-12-27T00:29:14.093Z,2.30
2022-12-27T00:31:40.680Z,2.85
2022-12-27T00:34:07.952Z,2.10
2022-12-27T00:36:35.226Z,2.28
2022-12-27T00:39:02.129Z,2.30
2022-12-27T00:41:28.832Z,2.33
2022-12-27T00:43:55.736Z,2.63
2022-12-27T00:46:22.388Z,2.28
2022-12-27T00:48:49.069Z,2.63
2022-12-27T00:51:21.329Z,2.83
2022-12-27T00:53:48.751Z,2.50
2022-12-27T00:56:19.007Z,2.83
2022-12-27T00:58:45.611Z,2.97
2022-12-27T01:01:18.030Z,3.67
2022-12-27T01:03:45.149Z,3.00
2022-12-27T01:06:17.438Z,3.20
2022-12-27T01:08:44.894Z,3.08
2022-12-27T01:11:11.818Z,3.30
2022-12-27T01:13:39.161Z,3.15
2022-12-27T01:16:12.576Z,3.00
2022-12-27T01:18:39.293Z,3.05
2022-12-27T01:21:12.081Z,3.33
2022-12-27T01:23:39.323Z,4.25
2022-12-27T01:26:10.205Z,3.33
2022-12-27T01:28:37.169Z,3.17
2022-12-27T01:31:12.831Z,3.30
2022-12-27T01:33:39.856Z,3.20
2022-12-27T01:36:18.262Z,2.80
2022-12-27T01:41:36.881Z,3.88
2022-12-27T01:44:35.125Z,3.20
2022-12-27T01:47:03.409Z,3.22
2022-12-27T01:49:30.032Z,2.72
2022-12-27T01:51:56.797Z,3.30
2022-12-27T01:54:23.921Z,3.45
2022-12-27T01:56:50.580Z,3.35
2022-12-27T01:59:17.337Z,3.55
2022-12-27T02:01:45.800Z,3.00
2022-12-27T02:06:40.044Z,3.80
2022-12-27T02:09:33.874Z,3.25
2022-12-27T02:12:02.050Z,3.03
2022-12-27T02:14:31.984Z,3.35
2022-12-27T02:17:01.304Z,3.20
2022-12-27T02:19:54.272Z,3.45
2022-12-27T02:22:20.757Z,3.13
2022-12-27T02:25:11.935Z,3.38
2022-12-27T02:27:38.536Z,3.28
2022-12-27T02:30:07.424Z,3.85
2022-12-27T02:32:45.496Z,3.67
2022-12-27T02:35:20.164Z,4.10
2022-12-27T02:37:54.069Z,3.50
2022-12-27T02:40:46.696Z,3.80
2022-12-27T02:43:32.358Z,5.00
2022-12-27T02:46:29.254Z,3.45
2022-12-27T02:49:16.826Z,3.60
2022-12-27T02:52:30.100Z,3.95
2022-12-27T02:55:34.076Z,4.00
2022-12-27T02:58:09.694Z,4.22
2022-12-27T03:01:05.275Z,3.88
2022-12-27T03:03:45.841Z,4.35
2022-12-27T03:06:40.678Z,4.00
2022-12-27T03:09:39.647Z,5.82
2022-12-27T03:12:30.299Z,4.15
2022-12-27T03:15:39.817Z,3.78
2022-12-27T03:18:16.426Z,4.53
2022-12-27T03:21:02.967Z,4.72
2022-12-27T03:23:48.616Z,5.00
2022-12-27T03:26:17.571Z,6.43
2022-12-27T03:29:04.159Z,4.60
2022-12-27T03:31:52.402Z,4.00
2022-12-27T03:37:21.968Z,4.53
2022-12-27T03:40:10.236Z,4.30
2022-12-27T03:45:53.803Z,5.00
2022-12-27T03:48:23.553Z,5.15
2022-12-27T03:50:54.932Z,4.93
2022-12-27T03:53:26.471Z,5.40
2022-12-27T03:55:53.099Z,6.10
2022-12-27T03:58:19.752Z,4.30
2022-12-27T04:00:46.649Z,4.97
2022-12-27T04:03:13.270Z,4.78
2022-12-27T04:05:39.826Z,5.05
2022-12-27T04:08:25.042Z,5.68
2022-12-27T04:11:10.245Z,6.35
2022-12-27T04:13:55.290Z,4.80
2022-12-27T04:16:40.556Z,5.18
2022-12-27T04:19:25.358Z,4.70
2022-12-27T04:22:10.307Z,4.90
2022-12-27T04:24:55.326Z,4.75
2022-12-27T04:27:40.724Z,4.50
2022-12-27T04:30:26.495Z,4.63
2022-12-27T04:33:11.569Z,4.93
2022-12-27T04:35:38.151Z,5.05
2022-12-27T04:38:04.707Z,4.80
2022-12-27T04:40:49.793Z,5.60
2022-12-27T04:43:34.807Z,5.30
2022-12-27T04:46:20.029Z,5.25
2022-12-27T04:49:05.190Z,5.30
2022-12-27T04:51:50.410Z,5.60
2022-12-27T04:54:40.553Z,5.72
2022-12-27T04:57:07.161Z,4.90
2022-12-27T04:59:52.137Z,5.47
2022-12-27T05:02:19.952Z,5.47
2022-12-27T05:04:47.092Z,5.10
2022-12-27T05:07:33.656Z,4.93
2022-12-27T05:10:20.491Z,4.68
2022-12-27T05:13:05.522Z,5.13
2022-12-27T05:15:32.089Z,4.70
2022-12-27T05:17:58.813Z,4.85
2022-12-27T05:20:25.523Z,4.88
2022-12-27T05:23:10.741Z,4.50
2022-12-27T05:25:42.307Z,5.18
2022-12-27T05:28:11.085Z,4.63
2022-12-27T05:30:39.500Z,4.47
2022-12-27T05:33:06.388Z,4.85
2022-12-27T05:35:34.636Z,5.25
2022-12-27T05:38:01.955Z,4.50
2022-12-27T05:40:28.774Z,4.93
2022-12-27T05:42:58.652Z,5.30
2022-12-27T05:45:25.262Z,5.95
2022-12-27T05:47:51.865Z,5.60
2022-12-27T05:50:18.634Z,6.38
2022-12-27T05:52:45.233Z,5.15
2022-12-27T05:55:12.822Z,5.45
2022-12-27T05:57:39.683Z,5.30
2022-12-27T06:00:06.946Z,5.30
2022-12-27T06:02:33.618Z,5.80
2022-12-27T06:05:00.259Z,6.03
2022-12-27T06:07:26.925Z,5.15
2022-12-27T06:09:53.485Z,6.00
2022-12-27T06:12:20.056Z,5.43
2022-12-27T06:14:46.640Z,6.00
2022-12-27T06:17:13.197Z,6.05
2022-12-27T06:19:39.768Z,5.88
2022-12-27T06:22:06.341Z,5.88
2022-12-27T06:24:32.913Z,6.15
2022-12-27T06:26:59.514Z,6.20
2022-12-27T06:29:26.076Z,6.03
2022-12-27T06:31:52.777Z,6.60
2022-12-27T06:34:19.382Z,6.55
2022-12-27T06:36:50.978Z,6.72
2022-12-27T06:39:18.795Z,6.65
2022-12-27T06:41:45.472Z,6.72
2022-12-27T06:44:12.201Z,7.20
2022-12-27T06:46:38.901Z,6.90
2022-12-27T06:49:05.489Z,6.40
2022-12-27T06:51:33.613Z,7.30
2022-12-27T06:54:00.211Z,7.03
2022-12-27T06:56:26.825Z,7.10
2022-12-27T06:58:53.960Z,6.90
2022-12-27T07:01:26.106Z,6.90
2022-12-27T07:03:58.247Z,6.05
2022-12-27T07:06:26.315Z,6.38
2022-12-27T07:08:53.335Z,7.22
2022-12-27T07:11:20.590Z,7.18
2022-12-27T07:13:52.229Z,6.25
2022-12-27T07:16:21.665Z,7.03
2022-12-27T07:18:49.941Z,6.28
2022-12-27T07:23:48.721Z,7.63
2022-12-27T07:26:20.036Z,7.40
2022-12-27T07:28:47.139Z,7.00
2022-12-27T07:31:16.957Z,6.85
2022-12-27T07:33:44.526Z,7.28
2022-12-27T07:36:19.476Z,7.57
2022-12-27T07:38:46.221Z,7.28
2022-12-27T07:41:13.519Z,6.78
2022-12-27T07:46:19.053Z,7.40
2022-12-27T07:48:47.284Z,7.25
2022-12-27T07:51:15.664Z,7.97
2022-12-27T07:53:42.473Z,7.50
2022-12-27T07:56:14.514Z,7.53
2022-12-27T07:58:44.270Z,7.32
2022-12-27T08:01:11.841Z,7.40
2022-12-27T08:03:39.912Z,6.32
2022-12-27T08:06:07.957Z,6.30
2022-12-27T08:08:40.459Z,6.60
2022-12-27T08:11:07.498Z,6.70
2022-12-27T08:13:34.529Z,6.82
2022-12-27T08:16:01.470Z,7.45
2022-12-27T08:18:28.344Z,6.38
2022-12-27T08:20:55.283Z,6.60
2022-12-27T08:23:21.899Z,7.10
2022-12-27T08:25:49.101Z,6.75
2022-12-27T08:28:17.464Z,6.53
2022-12-27T08:30:45.005Z,7.20
2022-12-27T08:33:11.808Z,7.17
2022-12-27T08:35:53.696Z,6.35
2022-12-27T08:38:21.163Z,6.03
2022-12-27T08:40:47.789Z,6.60
2022-12-27T08:43:14.704Z,5.82
2022-12-27T08:45:41.329Z,5.78
2022-12-27T08:48:08.098Z,6.30
2022-12-27T08:50:34.888Z,6.40
2022-12-27T08:53:02.848Z,6.18
2022-12-27T08:55:30.417Z,6.28
2022-12-27T08:58:10.533Z,6.88
2022-12-27T09:00:42.264Z,6.30
2022-12-27T09:03:09.554Z,6.75
2022-12-27T09:05:41.413Z,6.32
2022-12-27T09:08:09.451Z,5.50
2022-12-27T09:10:36.101Z,6.30
2022-12-27T09:13:02.806Z,6.53
2022-12-27T09:15:29.434Z,5.72
2022-12-27T09:17:56.092Z,7.18
2022-12-27T09:20:23.798Z,6.93
2022-12-27T09:22:51.931Z,6.47
2022-12-27T09:25:18.618Z,5.70
2022-12-27T09:27:45.339Z,5.70
2022-12-27T09:30:12.229Z,6.05
2022-12-27T09:32:38.780Z,5.90
2022-12-27T09:35:05.861Z,6.13
2022-12-27T09:37:32.589Z,6.32
2022-12-27T09:39:59.165Z,6.38
2022-12-27T09:42:57.667Z,6.20
2022-12-27T09:45:30.451Z,7.47
2022-12-27T09:48:02.878Z,6.68
2022-12-27T09:50:55.680Z,5.63
2022-12-27T09:53:26.699Z,6.38
2022-12-27T09:55:54.547Z,5.72
2022-12-27T09:58:39.511Z,5.75
2022-12-27T10:01:36.230Z,6.50
2022-12-27T10:04:03.989Z,6.43
2022-12-27T10:06:48.601Z,5.80
2022-12-27T10:09:43.020Z,6.03
2022-12-27T10:12:29.892Z,5.38
2022-12-27T10:15:13.847Z,5.68
2022-12-27T10:17:55.437Z,5.15
2022-12-27T10:20:31.089Z,5.47
2022-12-27T10:23:06.170Z,5.43
2022-12-27T10:25:34.144Z,5.88
2022-12-27T10:28:05.416Z,5.00
2022-12-27T10:30:32.027Z,4.70
2022-12-27T10:32:58.645Z,4.80
2022-12-27T10:35:26.257Z,5.22
2022-12-27T10:37:54.064Z,5.67
2022-12-27T10:40:28.675Z,5.47
2022-12-27T10:43:06.232Z,4.30
2022-12-27T10:45:33.672Z,4.43
2022-12-27T10:48:21.705Z,4.60
2022-12-27T10:51:05.815Z,4.18
2022-12-27T10:53:34.220Z,4.00
2022-12-27T10:56:29.434Z,3.90
2022-12-27T10:59:07.517Z,4.38
2022-12-27T11:01:34.902Z,5.15
2022-12-27T11:04:20.727Z,4.78
2022-12-27T11:06:51.672Z,4.70
2022-12-27T11:09:30.699Z,4.40
2022-12-27T11:12:28.586Z,4.40
2022-12-27T11:15:04.722Z,4.57
2022-12-27T11:17:47.944Z,4.28
2022-12-27T11:20:20.623Z,4.57
2022-12-27T11:22:57.270Z,4.05
2022-12-27T11:25:26.580Z,4.25
2022-12-27T11:28:00.342Z,4.55
2022-12-27T11:30:30.927Z,4.30
2022-12-27T11:33:25.231Z,4.65
2022-12-27T11:35:54.603Z,5.43
2022-12-27T11:38:27.441Z,5.00
2022-12-27T11:41:00.172Z,5.25
2022-12-27T11:43:30.647Z,5.57
2022-12-27T11:45:57.595Z,4.88
2022-12-27T11:48:35.043Z,6.25
2022-12-27T11:51:01.648Z,6.03
2022-12-27T11:53:43.411Z,5.40
2022-12-27T11:56:12.976Z,5.55
2022-12-27T11:58:54.771Z,6.03
2022-12-27T12:01:25.672Z,5.38
2022-12-27T12:04:15.942Z,5.50
2022-12-27T12:06:47.283Z,6.20
2022-12-27T12:09:17.789Z,5.63
2022-12-27T12:11:54.872Z,5.50
2022-12-27T12:14:46.764Z,5.93
2022-12-27T12:17:23.933Z,6.20
2022-12-27T12:19:59.457Z,5.75
2022-12-27T12:22:35.038Z,6.07
2022-12-27T12:25:20.274Z,5.60
2022-12-27T12:28:56.306Z,5.75
2022-12-27T12:31:44.196Z,5.53
2022-12-27T12:34:52.775Z,5.45
2022-12-27T12:37:57.723Z,5.15
2022-12-27T12:40:33.148Z,5.40
2022-12-27T12:43:32.752Z,5.65
2022-12-27T12:46:14.359Z,5.50
2022-12-27T12:48:53.011Z,4.47
2022-12-27T12:51:25.180Z,5.13
2022-12-27T12:54:09.997Z,5.07
2022-12-27T12:57:14.141Z,4.90
2022-12-27T13:00:12.618Z,5.55
2022-12-27T13:03:30.113Z,5.43
2022-12-27T13:06:27.493Z,4.63
2022-12-27T13:09:07.382Z,4.70
2022-12-27T13:11:52.837Z,4.43
2022-12-27T13:14:51.517Z,4.47
2022-12-27T13:17:39.185Z,4.90
2022-12-27T13:20:34.937Z,4.40
2022-12-27T13:23:23.013Z,4.30
2022-12-27T13:25:59.065Z,4.53
2022-12-27T13:28:42.600Z,4.07
2022-12-27T13:31:35.747Z,4.13
2022-12-27T13:34:15.823Z,3.70
2022-12-27T13:37:02.564Z,3.50
2022-12-27T13:40:03.406Z,4.10
2022-12-27T13:42:44.685Z,4.75
2022-12-27T13:45:32.629Z,4.05
2022-12-27T13:48:16.505Z,3.67
2022-12-27T13:51:07.402Z,3.70
2022-12-27T13:53:52.561Z,3.60
2022-12-27T13:56:53.892Z,3.67
2022-12-27T13:59:27.427Z,3.58
2022-12-27T14:02:09.284Z,3.63
2022-12-27T14:05:00.750Z,3.42
2022-12-27T14:07:33.532Z,4.07
2022-12-27T14:10:03.828Z,3.35
2022-12-27T14:12:42.477Z,4.13
2022-12-27T14:15:13.838Z,3.50
2022-12-27T14:18:28.505Z,3.80
2022-12-27T14:21:16.445Z,3.80
2022-12-27T14:23:53.362Z,3.75
2022-12-27T14:26:38.510Z,4.60
2022-12-27T14:29:23.493Z,5.05
2022-12-27T14:32:03.485Z,4.43
2022-12-27T14:35:07.639Z,5.20
2022-12-27T14:38:01.577Z,4.40
2022-12-27T14:41:07.119Z,4.93
2022-12-27T14:43:38.377Z,5.40
2022-12-27T14:46:42.004Z,5.38
2022-12-27T14:49:33.376Z,5.47
2022-12-27T14:52:15.116Z,4.78
2022-12-27T14:55:06.530Z,4.82
2022-12-27T14:58:06.174Z,4.88
2022-12-27T15:01:00.742Z,4.53
2022-12-27T15:03:45.977Z,4.68
2022-12-27T15:06:53.747Z,4.28
2022-12-27T15:09:37.621Z,4.20
2022-12-27T15:12:39.753Z,3.92
2022-12-27T15:15:43.138Z,3.97
2022-12-27T15:18:15.743Z,3.42
2022-12-27T15:20:57.469Z,3.63
2022-12-27T15:23:36.315Z,3.28
2022-12-27T15:26:05.571Z,3.10
2022-12-27T15:28:40.159Z,3.30
2022-12-27T15:31:12.823Z,3.42
2022-12-27T15:34:11.331Z,3.22
2022-12-27T15:36:46.239Z,3.85
2022-12-27T15:39:34.588Z,3.20
2022-12-27T15:45:00.844Z,2.97
2022-12-27T15:48:04.721Z,3.40
2022-12-27T15:50:46.263Z,4.50
2022-12-27T15:53:41.943Z,4.18
2022-12-27T15:56:46.491Z,4.75
2022-12-27T15:59:34.821Z,5.28
2022-12-27T16:04:49.521Z,4.57
2022-12-27T16:07:41.192Z,5.18
2022-12-27T16:10:43.074Z,4.93
2022-12-27T16:13:09.711Z,5.60
2022-12-27T16:15:44.945Z,5.47
2022-12-27T16:18:23.746Z,5.60
2022-12-27T16:21:02.265Z,6.05
2022-12-27T16:23:46.967Z,5.68
2022-12-27T16:26:16.305Z,5.45
2022-12-27T16:28:52.485Z,5.50
2022-12-27T16:31:40.399Z,5.60
2022-12-27T16:34:13.182Z,5.93
2022-12-27T16:36:47.654Z,4.72
2022-12-27T16:39:23.068Z,5.43
2022-12-27T16:41:58.610Z,5.03
2022-12-27T16:44:25.127Z,5.07
2022-12-27T16:47:04.037Z,5.07
2022-12-27T16:50:25.491Z,4.60
2022-12-27T16:53:07.866Z,4.63
2022-12-27T16:55:59.363Z,4.07
2022-12-27T16:58:33.377Z,4.72
2022-12-27T17:01:02.064Z,4.43
2022-12-27T17:03:33.049Z,4.80
2022-12-27T17:09:10.089Z,4.28
2022-12-27T17:11:43.203Z,4.20
2022-12-27T17:14:20.267Z,4.18
2022-12-27T17:17:17.194Z,4.28
2022-12-27T17:20:05.635Z,4.20
2022-12-27T17:22:35.246Z,4.25
2022-12-27T17:25:02.640Z,3.97
2022-12-27T17:27:32.259Z,4.30
2022-12-27T17:30:23.979Z,3.80
2022-12-27T17:33:05.743Z,4.50
2022-12-27T17:35:44.280Z,4.28
2022-12-27T17:39:09.407Z,4.22
2022-12-27T17:42:03.414Z,4.20
2022-12-27T17:44:39.014Z,4.50
2022-12-27T17:47:13.470Z,4.88
2022-12-27T17:49:42.157Z,5.03
2022-12-27T17:52:35.042Z,4.20
2022-12-27T17:55:47.037Z,4.05
2022-12-27T17:58:18.823Z,4.30
2022-12-27T18:00:57.993Z,4.15
2022-12-27T18:03:35.806Z,3.45
2022-12-27T18:06:02.462Z,3.45
2022-12-27T18:08:30.891Z,3.55
2022-12-27T18:10:58.849Z,4.10
2022-12-27T18:13:28.092Z,3.95
2022-12-27T18:15:55.039Z,4.15
2022-12-27T18:18:29.307Z,3.45
2022-12-27T18:20:59.629Z,3.72
2022-12-27T18:23:26.884Z,3.88
2022-12-27T18:26:13.146Z,3.13
2022-12-27T18:28:41.331Z,3.90
2022-12-27T18:31:08.121Z,3.03
2022-12-27T18:33:42.003Z,3.40
2022-12-27T18:36:11.789Z,3.03
2022-12-27T18:38:40.778Z,2.85
2022-12-27T18:41:20.014Z,3.20
2022-12-27T18:43:54.711Z,2.95
2022-12-27T18:46:33.321Z,2.88
2022-12-27T18:49:00.369Z,2.55
2022-12-27T18:51:37.615Z,2.80
2022-12-27T18:54:30.983Z,2.58
2022-12-27T18:56:59.618Z,2.90
2022-12-27T18:59:35.990Z,2.60
2022-12-27T19:02:12.917Z,2.38
2022-12-27T19:04:39.580Z,2.63
2022-12-27T19:07:12.914Z,2.67
2022-12-27T19:09:48.650Z,2.28
2022-12-27T19:12:27.150Z,3.05
2022-12-27T19:17:25.827Z,2.38
2022-12-27T19:19:54.961Z,2.20
2022-12-27T19:22:48.899Z,4.28
2022-12-27T19:25:32.710Z,2.40
2022-12-27T19:28:02.849Z,2.78
2022-12-27T19:30:42.035Z,2.28
2022-12-27T19:33:13.414Z,1.85
2022-12-27T19:35:41.392Z,2.45
2022-12-27T19:38:17.369Z,2.50
2022-12-27T19:40:48.713Z,2.28
2022-12-27T19:43:15.418Z,2.33
2022-12-27T19:45:42.079Z,2.55
2022-12-27T19:48:10.186Z,2.13
2022-12-27T19:50:49.538Z,2.50
2022-12-27T19:53:21.636Z,1.90
2022-12-27T19:55:48.506Z,1.92
2022-12-27T19:58:23.792Z,3.25
2022-12-27T20:00:50.468Z,1.60
2022-12-27T20:03:17.202Z,1.70
2022-12-27T20:06:11.298Z,2.20
2022-12-27T20:08:44.181Z,1.70
2022-12-27T20:11:19.178Z,1.95
2022-12-27T20:13:46.565Z,2.17
2022-12-27T20:16:15.596Z,1.60
2022-12-27T20:18:43.259Z,2.40
2022-12-27T20:21:14.489Z,1.67
2022-12-27T20:23:41.311Z,1.92
2022-12-27T20:26:08.435Z,1.88
2022-12-27T20:28:35.174Z,1.60
2022-12-27T20:31:09.938Z,1.58
2022-12-27T20:33:36.991Z,1.70
2022-12-27T20:36:03.966Z,1.77
2022-12-27T20:38:30.795Z,1.63
2022-12-27T20:41:08.640Z,1.83
2022-12-27T20:43:35.608Z,2.10
2022-12-27T20:46:14.143Z,2.08
2022-12-27T20:48:43.395Z,1.67
2022-12-27T20:51:12.302Z,1.40
2022-12-27T20:53:38.916Z,1.80
2022-12-27T20:56:06.185Z,1.83
2022-12-27T20:58:33.224Z,1.75
2022-12-27T21:01:09.645Z,1.83
2022-12-27T21:03:37.432Z,1.67
2022-12-27T21:06:12.784Z,1.70
2022-12-27T21:08:46.537Z,1.70
2022-12-27T21:11:22.395Z,1.95
2022-12-27T21:13:49.600Z,1.70
2022-12-27T21:16:19.091Z,1.75
2022-12-27T21:18:47.265Z,1.60
2022-12-27T21:21:19.306Z,1.58
2022-12-27T21:23:46.372Z,2.15
2022-12-27T21:26:15.695Z,2.22
2022-12-27T21:28:42.693Z,1.73
2022-12-27T21:31:10.121Z,1.92
2022-12-27T21:33:36.828Z,1.90
2022-12-27T21:36:09.078Z,2.05
2022-12-27T21:38:35.725Z,1.95
2022-12-27T21:41:08.462Z,1.65
2022-12-27T21:43:35.316Z,1.88
2022-12-27T21:46:22.429Z,2.00
2022-12-27T21:48:57.133Z,2.33
2022-12-27T21:51:23.967Z,1.60
2022-12-27T21:53:51.224Z,1.67
2022-12-27T21:56:19.760Z,2.00
2022-12-27T22:01:25.104Z,1.77
2022-12-27T22:03:52.878Z,1.45
2022-12-27T22:06:21.953Z,1.58
2022-12-27T22:08:50.458Z,1.70
2022-12-27T22:13:46.203Z,1.70
2022-12-27T22:16:18.798Z,2.05
2022-12-27T22:18:45.728Z,2.50
2022-12-27T22:21:15.632Z,1.70
2022-12-27T22:23:44.454Z,1.75
2022-12-27T22:26:13.583Z,1.80
2022-12-27T22:28:40.995Z,1.70
2022-12-27T22:31:09.153Z,1.90
2022-12-27T22:33:36.509Z,2.08
2022-12-27T22:36:08.690Z,2.03
2022-12-27T22:38:36.804Z,1.98
2022-12-27T22:41:10.405Z,1.65
2022-12-27T22:43:36.967Z,1.65
2022-12-27T22:46:08.468Z,2.00
2022-12-27T22:48:35.458Z,2.13
2022-12-27T22:51:17.016Z,2.80
2022-12-27T22:53:43.806Z,1.70
2022-12-27T22:56:21.498Z,1.90
2022-12-27T22:58:48.575Z,1.88
2022-12-27T23:01:17.647Z,1.50
2022-12-27T23:03:44.528Z,1.77
2022-12-27T23:06:12.339Z,2.22
2022-12-27T23:08:39.870Z,1.63
2022-12-27T23:11:18.244Z,1.67
2022-12-27T23:13:44.917Z,1.63
2022-12-27T23:16:11.924Z,1.77
2022-12-27T23:18:41.426Z,2.15
2022-12-27T23:21:20.867Z,1.90
2022-12-27T23:23:50.211Z,1.83
2022-12-27T23:26:18.916Z,1.25
2022-12-27T23:28:46.529Z,2.00
2022-12-27T23:31:14.033Z,1.60
2022-12-27T23:33:42.256Z,1.60
2022-12-27T23:36:09.476Z,1.52
2022-12-27T23:38:36.186Z,1.63
2022-12-27T23:41:06.557Z,1.70
2022-12-27T23:43:55.273Z,1.25
2022-12-27T23:46:29.501Z,1.65
2022-12-27T23:48:57.573Z,1.70
2022-12-27T23:51:25.874Z,1.85
2022-12-27T23:53:52.869Z,1.70
2022-12-27T23:56:20.551Z,1.80
2022-12-27T23:58:47.986Z,1.53
